sensor_id;sensor_type;location;lat;lon;timestamp;P1;durP1;ratioP1;P2;durP2;ratioP2
33780;SDS011;20097;50.832;19.100;2023-05-24T00:04:22;16.48;;;11.82;;
33780;SDS011;20097;50.832;19.100;2023-05-24T00:09:31;12.98;;;10.85;;
33780;SDS011;20097;50.832;19.100;2023-05-24T00:14:37;15.52;;;11.82;;
33780;SDS011;20097;50.832;19.100;2023-05-24T00:19:41;16.08;;;12.18;;
33780;SDS011;20097;50.832;19.100;2023-05-24T00:24:45;17.47;;;12.77;;
33780;SDS011;20097;50.832;19.100;2023-05-24T00:29:51;18.52;;;14.43;;
33780;SDS011;20097;50.832;19.100;2023-05-24T00:34:56;17.13;;;14.50;;
33780;SDS011;20097;50.832;19.100;2023-05-24T00:40:00;17.45;;;15.13;;
33780;SDS011;20097;50.832;19.100;2023-05-24T00:45:07;19.23;;;16.17;;
33780;SDS011;20097;50.832;19.100;2023-05-24T00:50:12;19.80;;;15.45;;
33780;SDS011;20097;50.832;19.100;2023-05-24T00:55:18;22.52;;;17.73;;
33780;SDS011;20097;50.832;19.100;2023-05-24T01:00:24;23.92;;;18.02;;
33780;SDS011;20097;50.832;19.100;2023-05-24T01:05:29;24.10;;;19.30;;
33780;SDS011;20097;50.832;19.100;2023-05-24T01:10:37;24.00;;;20.05;;
33780;SDS011;20097;50.832;19.100;2023-05-24T01:15:55;30.27;;;21.83;;
33780;SDS011;20097;50.832;19.100;2023-05-24T01:21:06;23.70;;;19.92;;
33780;SDS011;20097;50.832;19.100;2023-05-24T01:26:31;26.67;;;21.55;;
33780;SDS011;20097;50.832;19.100;2023-05-24T01:31:47;29.52;;;22.45;;
33780;SDS011;20097;50.832;19.100;2023-05-24T01:36:52;26.95;;;20.88;;
33780;SDS011;20097;50.832;19.100;2023-05-24T01:41:59;28.08;;;21.55;;
33780;SDS011;20097;50.832;19.100;2023-05-24T01:47:20;27.95;;;21.55;;
33780;SDS011;20097;50.832;19.100;2023-05-24T01:52:37;25.48;;;19.50;;
33780;SDS011;20097;50.832;19.100;2023-05-24T01:57:47;23.65;;;19.67;;
33780;SDS011;20097;50.832;19.100;2023-05-24T02:02:54;30.10;;;22.40;;
33780;SDS011;20097;50.832;19.100;2023-05-24T02:08:00;26.55;;;21.30;;
33780;SDS011;20097;50.832;19.100;2023-05-24T02:13:04;32.43;;;23.77;;
33780;SDS011;20097;50.832;19.100;2023-05-24T02:18:10;28.73;;;23.00;;
33780;SDS011;20097;50.832;19.100;2023-05-24T02:23:16;26.77;;;22.73;;
33780;SDS011;20097;50.832;19.100;2023-05-24T02:28:20;29.38;;;23.45;;
33780;SDS011;20097;50.832;19.100;2023-05-24T02:33:26;26.00;;;21.67;;
33780;SDS011;20097;50.832;19.100;2023-05-24T02:38:31;27.00;;;20.58;;
33780;SDS011;20097;50.832;19.100;2023-05-24T02:43:36;31.25;;;22.10;;
33780;SDS011;20097;50.832;19.100;2023-05-24T02:48:41;29.73;;;22.50;;
33780;SDS011;20097;50.832;19.100;2023-05-24T02:53:46;28.67;;;21.75;;
33780;SDS011;20097;50.832;19.100;2023-05-24T02:58:50;31.15;;;22.45;;
33780;SDS011;20097;50.832;19.100;2023-05-24T03:03:57;28.38;;;22.20;;
33780;SDS011;20097;50.832;19.100;2023-05-24T03:09:01;29.48;;;22.15;;
33780;SDS011;20097;50.832;19.100;2023-05-24T03:19:16;29.10;;;20.60;;
33780;SDS011;20097;50.832;19.100;2023-05-24T03:24:22;31.40;;;21.65;;
33780;SDS011;20097;50.832;19.100;2023-05-24T03:29:27;26.15;;;19.75;;
33780;SDS011;20097;50.832;19.100;2023-05-24T03:34:33;23.42;;;19.20;;
33780;SDS011;20097;50.832;19.100;2023-05-24T03:39:37;23.65;;;19.58;;
33780;SDS011;20097;50.832;19.100;2023-05-24T03:44:54;28.60;;;18.88;;
33780;SDS011;20097;50.832;19.100;2023-05-24T03:50:00;23.33;;;18.33;;
33780;SDS011;20097;50.832;19.100;2023-05-24T03:55:05;21.65;;;17.80;;
33780;SDS011;20097;50.832;19.100;2023-05-24T04:00:10;22.48;;;19.10;;
33780;SDS011;20097;50.832;19.100;2023-05-24T04:05:21;21.73;;;17.98;;
33780;SDS011;20097;50.832;19.100;2023-05-24T04:10:28;20.20;;;17.35;;
33780;SDS011;20097;50.832;19.100;2023-05-24T04:15:32;23.27;;;17.33;;
33780;SDS011;20097;50.832;19.100;2023-05-24T04:20:38;24.02;;;18.55;;
33780;SDS011;20097;50.832;19.100;2023-05-24T04:25:44;20.80;;;18.10;;
33780;SDS011;20097;50.832;19.100;2023-05-24T04:30:49;21.20;;;16.95;;
33780;SDS011;20097;50.832;19.100;2023-05-24T04:35:57;20.70;;;17.35;;
33780;SDS011;20097;50.832;19.100;2023-05-24T04:41:03;25.50;;;18.05;;
33780;SDS011;20097;50.832;19.100;2023-05-24T04:46:09;27.45;;;19.25;;
33780;SDS011;20097;50.832;19.100;2023-05-24T04:51:14;24.30;;;18.02;;
33780;SDS011;20097;50.832;19.100;2023-05-24T04:56:19;22.50;;;18.52;;
33780;SDS011;20097;50.832;19.100;2023-05-24T05:01:24;27.23;;;18.70;;
33780;SDS011;20097;50.832;19.100;2023-05-24T05:06:30;22.00;;;17.73;;
33780;SDS011;20097;50.832;19.100;2023-05-24T05:11:36;22.85;;;16.73;;
33780;SDS011;20097;50.832;19.100;2023-05-24T05:16:40;21.27;;;16.40;;
33780;SDS011;20097;50.832;19.100;2023-05-24T05:21:47;29.55;;;19.63;;
33780;SDS011;20097;50.832;19.100;2023-05-24T05:26:51;22.60;;;15.27;;
33780;SDS011;20097;50.832;19.100;2023-05-24T05:31:56;28.03;;;19.23;;
33780;SDS011;20097;50.832;19.100;2023-05-24T05:37:01;23.40;;;18.13;;
33780;SDS011;20097;50.832;19.100;2023-05-24T05:42:06;25.58;;;16.35;;
33780;SDS011;20097;50.832;19.100;2023-05-24T05:47:10;19.92;;;13.77;;
33780;SDS011;20097;50.832;19.100;2023-05-24T05:52:16;19.92;;;13.18;;
33780;SDS011;20097;50.832;19.100;2023-05-24T05:57:21;22.75;;;13.52;;
33780;SDS011;20097;50.832;19.100;2023-05-24T06:02:26;22.17;;;15.32;;
33780;SDS011;20097;50.832;19.100;2023-05-24T06:07:32;19.15;;;13.32;;
33780;SDS011;20097;50.832;19.100;2023-05-24T06:12:37;18.70;;;12.52;;
33780;SDS011;20097;50.832;19.100;2023-05-24T06:17:42;21.02;;;13.65;;
33780;SDS011;20097;50.832;19.100;2023-05-24T06:22:50;16.63;;;11.52;;
33780;SDS011;20097;50.832;19.100;2023-05-24T06:27:54;19.40;;;11.90;;
33780;SDS011;20097;50.832;19.100;2023-05-24T06:32:59;14.50;;;10.95;;
33780;SDS011;20097;50.832;19.100;2023-05-24T06:38:05;10.80;;;8.07;;
33780;SDS011;20097;50.832;19.100;2023-05-24T06:43:10;9.32;;;7.03;;
33780;SDS011;20097;50.832;19.100;2023-05-24T06:48:15;11.60;;;7.25;;
33780;SDS011;20097;50.832;19.100;2023-05-24T06:53:21;11.25;;;7.55;;
33780;SDS011;20097;50.832;19.100;2023-05-24T06:58:26;9.57;;;6.07;;
33780;SDS011;20097;50.832;19.100;2023-05-24T07:03:30;12.60;;;6.47;;
33780;SDS011;20097;50.832;19.100;2023-05-24T07:08:36;11.60;;;5.75;;
33780;SDS011;20097;50.832;19.100;2023-05-24T07:13:41;12.77;;;6.45;;
33780;SDS011;20097;50.832;19.100;2023-05-24T07:18:45;12.43;;;6.47;;
33780;SDS011;20097;50.832;19.100;2023-05-24T07:23:51;9.57;;;6.07;;
33780;SDS011;20097;50.832;19.100;2023-05-24T07:28:55;11.68;;;5.07;;
33780;SDS011;20097;50.832;19.100;2023-05-24T07:34:00;12.45;;;5.72;;
33780;SDS011;20097;50.832;19.100;2023-05-24T07:39:05;10.05;;;5.97;;
33780;SDS011;20097;50.832;19.100;2023-05-24T07:44:11;10.18;;;6.05;;
33780;SDS011;20097;50.832;19.100;2023-05-24T07:49:16;10.85;;;5.57;;
33780;SDS011;20097;50.832;19.100;2023-05-24T07:54:22;9.77;;;6.30;;
33780;SDS011;20097;50.832;19.100;2023-05-24T07:59:27;10.15;;;5.72;;
33780;SDS011;20097;50.832;19.100;2023-05-24T08:04:31;10.38;;;5.25;;
33780;SDS011;20097;50.832;19.100;2023-05-24T08:09:38;13.75;;;6.50;;
33780;SDS011;20097;50.832;19.100;2023-05-24T08:14:43;10.90;;;5.30;;
33780;SDS011;20097;50.832;19.100;2023-05-24T08:24:53;12.63;;;6.30;;
33780;SDS011;20097;50.832;19.100;2023-05-24T08:29:58;15.27;;;7.13;;
33780;SDS011;20097;50.832;19.100;2023-05-24T08:35:04;12.15;;;6.38;;
33780;SDS011;20097;50.832;19.100;2023-05-24T08:40:24;12.93;;;6.00;;
33780;SDS011;20097;50.832;19.100;2023-05-24T08:45:29;9.93;;;4.95;;
33780;SDS011;20097;50.832;19.100;2023-05-24T08:50:35;12.50;;;6.70;;
33780;SDS011;20097;50.832;19.100;2023-05-24T08:55:41;11.25;;;6.57;;
33780;SDS011;20097;50.832;19.100;2023-05-24T09:00:46;14.52;;;6.97;;
33780;SDS011;20097;50.832;19.100;2023-05-24T09:05:51;10.32;;;6.35;;
33780;SDS011;20097;50.832;19.100;2023-05-24T09:10:57;14.07;;;6.50;;
33780;SDS011;20097;50.832;19.100;2023-05-24T09:16:05;10.60;;;6.10;;
33780;SDS011;20097;50.832;19.100;2023-05-24T09:21:10;12.90;;;6.40;;
33780;SDS011;20097;50.832;19.100;2023-05-24T09:31:21;9.00;;;5.65;;
33780;SDS011;20097;50.832;19.100;2023-05-24T09:36:35;10.65;;;6.35;;
33780;SDS011;20097;50.832;19.100;2023-05-24T09:41:46;13.57;;;6.50;;
33780;SDS011;20097;50.832;19.100;2023-05-24T09:47:00;11.48;;;5.43;;
33780;SDS011;20097;50.832;19.100;2023-05-24T09:52:06;10.52;;;6.40;;
33780;SDS011;20097;50.832;19.100;2023-05-24T10:02:19;11.82;;;6.30;;
33780;SDS011;20097;50.832;19.100;2023-05-24T10:07:25;11.73;;;5.10;;
33780;SDS011;20097;50.832;19.100;2023-05-24T10:12:31;9.82;;;5.25;;
33780;SDS011;20097;50.832;19.100;2023-05-24T10:17:37;13.82;;;4.97;;
33780;SDS011;20097;50.832;19.100;2023-05-24T10:22:43;18.63;;;5.93;;
33780;SDS011;20097;50.832;19.100;2023-05-24T10:27:51;9.07;;;5.10;;
33780;SDS011;20097;50.832;19.100;2023-05-24T10:32:59;10.10;;;4.90;;
33780;SDS011;20097;50.832;19.100;2023-05-24T10:38:06;10.05;;;5.25;;
33780;SDS011;20097;50.832;19.100;2023-05-24T10:43:12;10.30;;;5.70;;
33780;SDS011;20097;50.832;19.100;2023-05-24T10:48:32;11.35;;;6.18;;
33780;SDS011;20097;50.832;19.100;2023-05-24T10:53:38;6.80;;;4.50;;
33780;SDS011;20097;50.832;19.100;2023-05-24T10:58:57;6.63;;;5.15;;
33780;SDS011;20097;50.832;19.100;2023-05-24T11:04:06;8.07;;;5.15;;
33780;SDS011;20097;50.832;19.100;2023-05-24T11:09:13;6.95;;;4.40;;
33780;SDS011;20097;50.832;19.100;2023-05-24T11:14:21;8.23;;;5.13;;
33780;SDS011;20097;50.832;19.100;2023-05-24T11:19:30;7.32;;;4.88;;
33780;SDS011;20097;50.832;19.100;2023-05-24T11:24:39;6.95;;;4.72;;
33780;SDS011;20097;50.832;19.100;2023-05-24T11:36:55;7.53;;;4.32;;
33780;SDS011;20097;50.832;19.100;2023-05-24T11:42:00;6.88;;;4.60;;
33780;SDS011;20097;50.832;19.100;2023-05-24T11:47:14;5.72;;;5.18;;
33780;SDS011;20097;50.832;19.100;2023-05-24T11:52:20;6.72;;;4.80;;
33780;SDS011;20097;50.832;19.100;2023-05-24T11:57:28;6.18;;;4.93;;
33780;SDS011;20097;50.832;19.100;2023-05-24T12:02:39;6.00;;;4.93;;
33780;SDS011;20097;50.832;19.100;2023-05-24T12:07:45;8.93;;;5.28;;
33780;SDS011;20097;50.832;19.100;2023-05-24T12:12:57;6.45;;;5.72;;
33780;SDS011;20097;50.832;19.100;2023-05-24T12:23:08;8.65;;;5.93;;
33780;SDS011;20097;50.832;19.100;2023-05-24T12:28:12;8.77;;;6.03;;
33780;SDS011;20097;50.832;19.100;2023-05-24T12:33:17;10.63;;;7.28;;
33780;SDS011;20097;50.832;19.100;2023-05-24T12:38:24;11.25;;;6.97;;
33780;SDS011;20097;50.832;19.100;2023-05-24T12:43:29;9.00;;;6.07;;
33780;SDS011;20097;50.832;19.100;2023-05-24T12:48:33;11.38;;;8.00;;
33780;SDS011;20097;50.832;19.100;2023-05-24T12:53:39;9.38;;;6.97;;
33780;SDS011;20097;50.832;19.100;2023-05-24T12:58:44;12.15;;;7.88;;
33780;SDS011;20097;50.832;19.100;2023-05-24T13:03:49;8.00;;;6.90;;
33780;SDS011;20097;50.832;19.100;2023-05-24T13:08:56;12.32;;;8.15;;
33780;SDS011;20097;50.832;19.100;2023-05-24T14:48:02;10.45;;;7.72;;
33780;SDS011;20097;50.832;19.100;2023-05-24T14:53:12;10.02;;;6.95;;
33780;SDS011;20097;50.832;19.100;2023-05-24T14:58:17;14.60;;;7.83;;
33780;SDS011;20097;50.832;19.100;2023-05-24T15:03:22;11.40;;;6.30;;
33780;SDS011;20097;50.832;19.100;2023-05-24T15:08:27;10.45;;;7.03;;
33780;SDS011;20097;50.832;19.100;2023-05-24T15:13:31;10.73;;;6.20;;
33780;SDS011;20097;50.832;19.100;2023-05-24T15:18:37;14.75;;;6.82;;
33780;SDS011;20097;50.832;19.100;2023-05-24T15:23:42;12.77;;;7.78;;
33780;SDS011;20097;50.832;19.100;2023-05-24T15:28:46;10.07;;;7.07;;
33780;SDS011;20097;50.832;19.100;2023-05-24T15:33:52;11.57;;;8.00;;
33780;SDS011;20097;50.832;19.100;2023-05-24T15:38:56;12.70;;;7.32;;
33780;SDS011;20097;50.832;19.100;2023-05-24T15:44:00;12.82;;;7.38;;
33780;SDS011;20097;50.832;19.100;2023-05-24T15:49:11;11.40;;;7.10;;
33780;SDS011;20097;50.832;19.100;2023-05-24T15:54:16;14.25;;;7.68;;
33780;SDS011;20097;50.832;19.100;2023-05-24T15:59:22;12.63;;;8.15;;
33780;SDS011;20097;50.832;19.100;2023-05-24T16:04:28;13.85;;;7.50;;
33780;SDS011;20097;50.832;19.100;2023-05-24T16:09:32;13.75;;;8.75;;
33780;SDS011;20097;50.832;19.100;2023-05-24T16:14:37;8.85;;;7.68;;
33780;SDS011;20097;50.832;19.100;2023-05-24T16:19:42;14.13;;;8.02;;
33780;SDS011;20097;50.832;19.100;2023-05-24T16:24:48;12.38;;;7.75;;
33780;SDS011;20097;50.832;19.100;2023-05-24T16:29:52;16.55;;;8.23;;
33780;SDS011;20097;50.832;19.100;2023-05-24T16:34:58;13.40;;;8.45;;
33780;SDS011;20097;50.832;19.100;2023-05-24T16:40:02;12.32;;;7.63;;
33780;SDS011;20097;50.832;19.100;2023-05-24T16:45:11;10.80;;;7.40;;
33780;SDS011;20097;50.832;19.100;2023-05-24T16:50:17;13.68;;;7.95;;
33780;SDS011;20097;50.832;19.100;2023-05-24T16:55:22;13.27;;;7.60;;
33780;SDS011;20097;50.832;19.100;2023-05-24T17:00:26;16.57;;;8.60;;
33780;SDS011;20097;50.832;19.100;2023-05-24T17:05:32;13.43;;;8.27;;
33780;SDS011;20097;50.832;19.100;2023-05-24T17:18:26;18.00;;;9.13;;
33780;SDS011;20097;50.832;19.100;2023-05-24T17:23:33;19.27;;;9.82;;
33780;SDS011;20097;50.832;19.100;2023-05-24T17:28:39;17.27;;;9.18;;
33780;SDS011;20097;50.832;19.100;2023-05-24T17:33:46;16.17;;;10.20;;
33780;SDS011;20097;50.832;19.100;2023-05-24T17:38:51;18.15;;;10.45;;
33780;SDS011;20097;50.832;19.100;2023-05-24T17:43:56;16.80;;;10.02;;
33780;SDS011;20097;50.832;19.100;2023-05-24T17:49:00;15.52;;;10.05;;
33780;SDS011;20097;50.832;19.100;2023-05-24T17:59:10;18.23;;;10.20;;
33780;SDS011;20097;50.832;19.100;2023-05-24T18:04:15;19.23;;;9.80;;
33780;SDS011;20097;50.832;19.100;2023-05-24T18:09:20;20.83;;;11.63;;
33780;SDS011;20097;50.832;19.100;2023-05-24T18:14:24;20.02;;;11.93;;
33780;SDS011;20097;50.832;19.100;2023-05-24T18:19:30;20.88;;;11.23;;
33780;SDS011;20097;50.832;19.100;2023-05-24T18:24:35;19.83;;;11.07;;
33780;SDS011;20097;50.832;19.100;2023-05-24T18:29:40;19.05;;;10.43;;
33780;SDS011;20097;50.832;19.100;2023-05-24T18:34:44;18.63;;;10.73;;
33780;SDS011;20097;50.832;19.100;2023-05-24T18:39:50;21.80;;;11.07;;
33780;SDS011;20097;50.832;19.100;2023-05-24T18:44:54;16.95;;;10.77;;
33780;SDS011;20097;50.832;19.100;2023-05-24T18:49:59;21.77;;;11.87;;
33780;SDS011;20097;50.832;19.100;2023-05-24T18:55:05;18.95;;;11.75;;
33780;SDS011;20097;50.832;19.100;2023-05-24T19:00:13;20.52;;;12.95;;
33780;SDS011;20097;50.832;19.100;2023-05-24T19:05:22;25.73;;;13.00;;
33780;SDS011;20097;50.832;19.100;2023-05-24T19:10:28;18.10;;;11.20;;
33780;SDS011;20097;50.832;19.100;2023-05-24T19:15:33;21.25;;;13.02;;
33780;SDS011;20097;50.832;19.100;2023-05-24T19:20:38;27.20;;;13.40;;
33780;SDS011;20097;50.832;19.100;2023-05-24T19:25:44;19.38;;;12.85;;
33780;SDS011;20097;50.832;19.100;2023-05-24T19:30:51;20.10;;;12.48;;
33780;SDS011;20097;50.832;19.100;2023-05-24T19:35:55;21.20;;;11.32;;
33780;SDS011;20097;50.832;19.100;2023-05-24T19:41:01;20.05;;;11.93;;
33780;SDS011;20097;50.832;19.100;2023-05-24T19:46:06;19.95;;;12.07;;
33780;SDS011;20097;50.832;19.100;2023-05-24T19:51:12;21.05;;;14.30;;
33780;SDS011;20097;50.832;19.100;2023-05-24T19:56:18;22.40;;;13.52;;
33780;SDS011;20097;50.832;19.100;2023-05-24T20:01:23;23.67;;;12.55;;
33780;SDS011;20097;50.832;19.100;2023-05-24T20:06:28;26.80;;;14.02;;
33780;SDS011;20097;50.832;19.100;2023-05-24T20:11:34;21.58;;;13.10;;
33780;SDS011;20097;50.832;19.100;2023-05-24T20:16:38;25.50;;;13.68;;
33780;SDS011;20097;50.832;19.100;2023-05-24T20:21:43;23.80;;;13.30;;
33780;SDS011;20097;50.832;19.100;2023-05-24T20:26:48;22.88;;;13.13;;
33780;SDS011;20097;50.832;19.100;2023-05-24T20:31:53;19.75;;;12.68;;
33780;SDS011;20097;50.832;19.100;2023-05-24T20:36:57;27.58;;;13.98;;
33780;SDS011;20097;50.832;19.100;2023-05-24T20:42:03;17.33;;;12.25;;
33780;SDS011;20097;50.832;19.100;2023-05-24T20:47:09;21.70;;;12.02;;
33780;SDS011;20097;50.832;19.100;2023-05-24T20:52:13;27.87;;;16.03;;
33780;SDS011;20097;50.832;19.100;2023-05-24T20:57:19;21.20;;;12.77;;
33780;SDS011;20097;50.832;19.100;2023-05-24T21:02:23;22.88;;;13.43;;
33780;SDS011;20097;50.832;19.100;2023-05-24T21:07:30;25.23;;;16.27;;
33780;SDS011;20097;50.832;19.100;2023-05-24T21:12:36;21.63;;;14.45;;
33780;SDS011;20097;50.832;19.100;2023-05-24T21:17:40;23.20;;;14.38;;
33780;SDS011;20097;50.832;19.100;2023-05-24T21:22:44;23.50;;;15.18;;
33780;SDS011;20097;50.832;19.100;2023-05-24T21:27:50;23.48;;;14.93;;
33780;SDS011;20097;50.832;19.100;2023-05-24T21:32:54;23.95;;;14.45;;
33780;SDS011;20097;50.832;19.100;2023-05-24T21:37:59;24.65;;;15.55;;
33780;SDS011;20097;50.832;19.100;2023-05-24T21:43:04;24.30;;;15.90;;
33780;SDS011;20097;50.832;19.100;2023-05-24T21:48:13;29.85;;;16.48;;
33780;SDS011;20097;50.832;19.100;2023-05-24T21:53:18;24.05;;;16.98;;
33780;SDS011;20097;50.832;19.100;2023-05-24T21:58:24;25.58;;;16.95;;
33780;SDS011;20097;50.832;19.100;2023-05-24T22:03:28;21.58;;;15.43;;
33780;SDS011;20097;50.832;19.100;2023-05-24T22:08:33;23.33;;;15.40;;
33780;SDS011;20097;50.832;19.100;2023-05-24T22:13:47;22.38;;;14.00;;
33780;SDS011;20097;50.832;19.100;2023-05-24T22:18:53;23.80;;;13.82;;
33780;SDS011;20097;50.832;19.100;2023-05-24T22:23:58;23.30;;;15.43;;
33780;SDS011;20097;50.832;19.100;2023-05-24T22:29:04;19.67;;;13.82;;
33780;SDS011;20097;50.832;19.100;2023-05-24T22:34:09;16.38;;;13.07;;
33780;SDS011;20097;50.832;19.100;2023-05-24T22:39:14;23.27;;;15.35;;
33780;SDS011;20097;50.832;19.100;2023-05-24T22:44:20;18.58;;;13.88;;
33780;SDS011;20097;50.832;19.100;2023-05-24T22:49:33;23.88;;;14.35;;
33780;SDS011;20097;50.832;19.100;2023-05-24T22:54:38;26.90;;;13.90;;
33780;SDS011;20097;50.832;19.100;2023-05-24T22:59:44;20.83;;;15.48;;
33780;SDS011;20097;50.832;19.100;2023-05-24T23:04:48;26.50;;;16.20;;
33780;SDS011;20097;50.832;19.100;2023-05-24T23:09:52;23.05;;;15.55;;
33780;SDS011;20097;50.832;19.100;2023-05-24T23:14:58;25.03;;;14.87;;
33780;SDS011;20097;50.832;19.100;2023-05-24T23:20:03;23.55;;;16.00;;
33780;SDS011;20097;50.832;19.100;2023-05-24T23:25:11;22.73;;;14.48;;
33780;SDS011;20097;50.832;19.100;2023-05-24T23:30:17;24.75;;;15.57;;
33780;SDS011;20097;50.832;19.100;2023-05-24T23:35:21;22.33;;;17.10;;
33780;SDS011;20097;50.832;19.100;2023-05-24T23:40:25;23.17;;;16.87;;
33780;SDS011;20097;50.832;19.100;2023-05-24T23:45:32;24.65;;;14.43;;
33780;SDS011;20097;50.832;19.100;2023-05-24T23:50:37;24.88;;;14.52;;
33780;SDS011;20097;50.832;19.100;2023-05-24T23:55:54;21.55;;;15.52;;
